Samadhi — ZCOY9 — position and weather

sailwx.info

Track history (hours):
 
Tides and Currents Weather Stations Pressure Air Temp Water Temp Dewpoint Dewpoint Depression Visibility Wind Speed Wind Dir Waves Ship Positions

Samadhi

Last reported at 2015-Aug-28 23:27 UTC. Time now 2015-Aug-29 00:21 UTC.
Position N 43°16' E 006°38'.

Length 61 m; draft 3.3 m.

Type: Pleasure craft. MMSI: 319420000.

Date/timePositionNaut miles runAvg speedWind from/ knotsBaromVisibWave heightAir tempDewpointWater temp
2015-Aug-28 23:27N 43°16' E 006°38'0 0.0
2015-Aug-28 22:33N 43°16' E 006°38'0 0.0
2015-Aug-28 21:33N 43°16' E 006°38'0 0.0
2015-Aug-28 20:33N 43°16' E 006°38'0 0.0
2015-Aug-28 19:27N 43°16' E 006°38'0 0.0
2015-Aug-28 18:33N 43°16' E 006°38'0 0.1
2015-Aug-28 16:30N 43°16' E 006°38'0 0.4
2015-Aug-28 15:26N 43°17' E 006°37'0 0.0
2015-Aug-28 14:26N 43°17' E 006°37'0 0.0
2015-Aug-28 13:32N 43°17' E 006°37'0 0.0
2015-Aug-28 12:32N 43°17' E 006°37'0 0.0
2015-Aug-28 11:32N 43°17' E 006°37'0 0.0
2015-Aug-28 10:32N 43°17' E 006°37'0 0.0
2015-Aug-28 09:33N 43°17' E 006°37'0 0.0
2015-Aug-28 08:24N 43°17' E 006°37'0 0.0
2015-Aug-27 19:33N 43°17' E 006°37'0 0.0
2015-Aug-27 16:32N 43°17' E 006°37'0 0.0
2015-Aug-27 15:03N 43°17' E 006°37'4 7.7
2015-Aug-27 14:33N 43°17' E 006°43'4 3.1
2015-Aug-27 13:14N 43°14' E 006°40'0 0.0
2015-Aug-27 12:32N 43°14' E 006°40'0 0.0
2015-Aug-27 11:23N 43°14' E 006°40'3 3.4
2015-Aug-27 10:33N 43°15' E 006°44'5 4.2
2015-Aug-27 09:21N 43°17' E 006°37'0 0.0
2015-Aug-27 08:33N 43°17' E 006°37'0 0.0
2015-Aug-27 05:21N 43°17' E 006°37'0 0.0
2015-Aug-27 00:21N 43°17' E 006°37'3 3.2
2015-Aug-26 23:32N 43°18' E 006°41'1313.1
2015-Aug-26 22:33N 43°24' E 006°56'1212.1
2015-Aug-26 21:33N 43°33' E 007°07'0 0.0
2015-Aug-26 20:29N 43°33' E 007°07'0 0.0
2015-Aug-26 19:29N 43°33' E 007°07'0 0.0
2015-Aug-26 18:29N 43°33' E 007°07'0 0.0
2015-Aug-26 17:23N 43°33' E 007°07'0 0.0
2015-Aug-26 16:29N 43°33' E 007°07'3 3.8
2015-Aug-26 15:34N 43°34' E 007°11'10 7.2
2015-Aug-26 14:10N 43°42' E 007°20'0 0.0
2015-Aug-26 13:33N 43°42' E 007°20'1 0.9
2015-Aug-26 12:33N 43°43' E 007°21'0 0.0
2015-Aug-26 09:27N 43°43' E 007°21'0 0.0
2015-Aug-26 08:27N 43°43' E 007°21'0 0.0
2015-Aug-26 07:09N 43°43' E 007°21'0 0.0
2015-Aug-26 06:27N 43°43' E 007°21'0 0.0
2015-Aug-26 04:21N 43°43' E 007°21'0 0.0
2015-Aug-26 03:15N 43°43' E 007°21'0 0.0
2015-Aug-26 02:33N 43°43' E 007°21'0 0.0
2015-Aug-26 01:33N 43°43' E 007°21'0 0.0
2015-Aug-26 00:33N 43°43' E 007°21'0 0.0
2015-Aug-25 23:27N 43°43' E 007°21'0 0.0
2015-Aug-25 22:33N 43°43' E 007°21'0 0.0
2015-Aug-25 21:33N 43°43' E 007°21'0 0.0
2015-Aug-25 20:33N 43°43' E 007°21'0 0.0
2015-Aug-25 19:27N 43°43' E 007°21'0 0.0
2015-Aug-25 18:33N 43°43' E 007°21'0 0.0
2015-Aug-25 17:33N 43°43' E 007°21'0 0.0
2015-Aug-25 16:33N 43°43' E 007°21'61 1.5
2015-Aug-24 00:32N 44°03' E 008°40'1211.1
2015-Aug-23 23:28N 44°09' E 008°55'1010.9
2015-Aug-23 22:33N 44°14' E 009°06'  
2015-Aug-19 22:32N 40°37' E 013°50'1111.7
2015-Aug-19 21:34N 40°34' E 014°05'9 1.1
2015-Aug-19 13:19N 40°34' E 014°16'912.1
2015-Aug-19 12:33N 40°43' E 014°14'7 5.9
2015-Aug-19 11:27N 40°49' E 014°14'1010.4
2015-Aug-19 10:29N 40°44' E 014°25'7 2.2
2015-Aug-19 07:30N 40°38' E 014°20'  
Track history (hours):
 
Tides and Currents Weather Stations Pressure Air Temp Water Temp Dewpoint Dewpoint Depression Visibility Wind Speed Wind Dir Waves Ship Positions

Samadhi

Last reported at 2015-Aug-28 23:27 UTC. Time now 2015-Aug-29 00:21 UTC.
Position N 43°16' E 006°38'.

Length 61 m; draft 3.3 m.

Type: Pleasure craft. MMSI: 319420000.

Date/timePositionNaut miles runAvg speedWind from/ knotsBaromVisibWave heightAir tempDewpointWater temp
2015-Aug-28 23:27N 43°16' E 006°38'0 0.0
2015-Aug-28 22:33N 43°16' E 006°38'0 0.0
2015-Aug-28 21:33N 43°16' E 006°38'0 0.0
2015-Aug-28 20:33N 43°16' E 006°38'0 0.0
2015-Aug-28 19:27N 43°16' E 006°38'0 0.0
2015-Aug-28 18:33N 43°16' E 006°38'0 0.1
2015-Aug-28 16:30N 43°16' E 006°38'0 0.4
2015-Aug-28 15:26N 43°17' E 006°37'0 0.0
2015-Aug-28 14:26N 43°17' E 006°37'0 0.0
2015-Aug-28 13:32N 43°17' E 006°37'0 0.0
2015-Aug-28 12:32N 43°17' E 006°37'0 0.0
2015-Aug-28 11:32N 43°17' E 006°37'0 0.0
2015-Aug-28 10:32N 43°17' E 006°37'0 0.0
2015-Aug-28 09:33N 43°17' E 006°37'0 0.0
2015-Aug-28 08:24N 43°17' E 006°37'0 0.0
2015-Aug-27 19:33N 43°17' E 006°37'0 0.0
2015-Aug-27 16:32N 43°17' E 006°37'0 0.0
2015-Aug-27 15:03N 43°17' E 006°37'4 7.7
2015-Aug-27 14:33N 43°17' E 006°43'4 3.1
2015-Aug-27 13:14N 43°14' E 006°40'0 0.0
2015-Aug-27 12:32N 43°14' E 006°40'0 0.0
2015-Aug-27 11:23N 43°14' E 006°40'3 3.4
2015-Aug-27 10:33N 43°15' E 006°44'5 4.2
2015-Aug-27 09:21N 43°17' E 006°37'0 0.0
2015-Aug-27 08:33N 43°17' E 006°37'0 0.0
2015-Aug-27 05:21N 43°17' E 006°37'0 0.0
2015-Aug-27 00:21N 43°17' E 006°37'3 3.2
2015-Aug-26 23:32N 43°18' E 006°41'1313.1
2015-Aug-26 22:33N 43°24' E 006°56'1212.1
2015-Aug-26 21:33N 43°33' E 007°07'0 0.0
2015-Aug-26 20:29N 43°33' E 007°07'0 0.0
2015-Aug-26 19:29N 43°33' E 007°07'0 0.0
2015-Aug-26 18:29N 43°33' E 007°07'0 0.0
2015-Aug-26 17:23N 43°33' E 007°07'0 0.0
2015-Aug-26 16:29N 43°33' E 007°07'3 3.8
2015-Aug-26 15:34N 43°34' E 007°11'10 7.2
2015-Aug-26 14:10N 43°42' E 007°20'0 0.0
2015-Aug-26 13:33N 43°42' E 007°20'1 0.9
2015-Aug-26 12:33N 43°43' E 007°21'0 0.0
2015-Aug-26 09:27N 43°43' E 007°21'0 0.0
2015-Aug-26 08:27N 43°43' E 007°21'0 0.0
2015-Aug-26 07:09N 43°43' E 007°21'0 0.0
2015-Aug-26 06:27N 43°43' E 007°21'0 0.0
2015-Aug-26 04:21N 43°43' E 007°21'0 0.0
2015-Aug-26 03:15N 43°43' E 007°21'0 0.0
2015-Aug-26 02:33N 43°43' E 007°21'0 0.0
2015-Aug-26 01:33N 43°43' E 007°21'0 0.0
2015-Aug-26 00:33N 43°43' E 007°21'0 0.0
2015-Aug-25 23:27N 43°43' E 007°21'0 0.0
2015-Aug-25 22:33N 43°43' E 007°21'0 0.0
2015-Aug-25 21:33N 43°43' E 007°21'0 0.0
2015-Aug-25 20:33N 43°43' E 007°21'0 0.0
2015-Aug-25 19:27N 43°43' E 007°21'0 0.0
2015-Aug-25 18:33N 43°43' E 007°21'0 0.0
2015-Aug-25 17:33N 43°43' E 007°21'0 0.0
2015-Aug-25 16:33N 43°43' E 007°21'61 1.5
2015-Aug-24 00:32N 44°03' E 008°40'1211.1
2015-Aug-23 23:28N 44°09' E 008°55'1010.9
2015-Aug-23 22:33N 44°14' E 009°06'  
2015-Aug-19 22:32N 40°37' E 013°50'1111.7
2015-Aug-19 21:34N 40°34' E 014°05'9 1.1
2015-Aug-19 13:19N 40°34' E 014°16'912.1
2015-Aug-19 12:33N 40°43' E 014°14'7 5.9
2015-Aug-19 11:27N 40°49' E 014°14'1010.4
2015-Aug-19 10:29N 40°44' E 014°25'7 2.2
2015-Aug-19 07:30N 40°38' E 014°20'  

Dump ship's entire track history